createdAt,value
2023-03-29T00:01:42.500Z,99633.41
2023-03-29T00:04:10.440Z,99611.09
2023-03-29T00:06:37.901Z,99623.97
2023-03-29T00:09:09.796Z,99622.25
2023-03-29T00:11:36.620Z,99618.81
2023-03-29T00:14:03.455Z,99604.25
2023-03-29T00:16:30.258Z,99620.53
2023-03-29T00:18:57.421Z,99627.38
2023-03-29T00:21:24.245Z,99604.22
2023-03-29T00:23:51.043Z,99616.22
2023-03-29T00:26:17.773Z,99587.94
2023-03-29T00:28:44.412Z,99612.81
2023-03-29T00:31:13.901Z,99660.81
2023-03-29T00:33:41.467Z,99600.81
2023-03-29T00:36:09.018Z,99628.25
2023-03-29T00:38:36.220Z,99605.09
2023-03-29T00:41:04.298Z,99600.78
2023-03-29T00:43:31.265Z,99603.38
2023-03-29T00:45:57.981Z,99588.78
2023-03-29T00:48:27.319Z,99596.53
2023-03-29T00:51:04.591Z,99546.81
2023-03-29T00:53:37.571Z,99591.38
2023-03-29T00:56:07.494Z,99537.38
2023-03-29T00:58:40.534Z,99576.78
2023-03-29T01:01:11.154Z,99577.63
2023-03-29T01:03:46.480Z,99615.38
2023-03-29T01:06:15.510Z,99607.66
2023-03-29T01:08:47.788Z,99610.22
2023-03-29T01:11:24.063Z,99587.09
2023-03-29T01:13:59.650Z,99609.41
2023-03-29T01:16:28.698Z,99609.41
2023-03-29T01:18:58.379Z,99580.22
2023-03-29T01:22:04.568Z,99617.09
2023-03-29T01:24:51.501Z,99617.97
2023-03-29T01:27:48.808Z,99612.81
2023-03-29T01:30:19.794Z,99611.09
2023-03-29T01:32:51.906Z,99581.94
2023-03-29T01:35:22.878Z,99600.78
2023-03-29T01:37:58.850Z,99610.25
2023-03-29T01:40:28.353Z,99623.91
2023-03-29T01:43:00.781Z,99598.22
2023-03-29T01:45:41.219Z,99601.69
2023-03-29T01:48:31.577Z,99637.66
2023-03-29T01:51:09.464Z,99635.09
2023-03-29T01:54:00.856Z,99612.81
2023-03-29T01:56:28.832Z,99613.66
2023-03-29T01:59:01.240Z,99622.25
2023-03-29T02:01:32.749Z,99671.13
2023-03-29T02:04:03.178Z,99637.69
2023-03-29T02:06:32.807Z,99653.09
2023-03-29T02:08:59.738Z,99653.97
2023-03-29T02:11:29.330Z,99647.97
2023-03-29T02:13:57.324Z,99649.66
2023-03-29T02:16:24.111Z,99660.84
2023-03-29T02:18:53.014Z,99639.38
2023-03-29T02:21:36.970Z,99662.53
2023-03-29T02:24:06.760Z,99679.66
2023-03-29T02:26:33.843Z,99674.50
2023-03-29T02:29:00.812Z,99685.66
2023-03-29T02:31:33.991Z,99680.53
2023-03-29T02:34:24.523Z,99639.38
2023-03-29T02:36:54.709Z,99682.25
2023-03-29T02:39:21.996Z,99707.94
2023-03-29T02:41:50.077Z,99689.97
2023-03-29T02:44:28.904Z,99665.97
2023-03-29T02:46:58.434Z,99658.25
2023-03-29T02:49:25.314Z,99641.09
2023-03-29T02:51:54.757Z,99663.41
2023-03-29T02:54:25.991Z,99668.53
2023-03-29T02:57:01.785Z,99660.78
2023-03-29T02:59:30.138Z,99654.81
2023-03-29T03:01:56.880Z,99627.38
2023-03-29T03:04:23.584Z,99640.22
2023-03-29T03:06:50.345Z,99644.50
2023-03-29T03:09:17.553Z,99680.50
2023-03-29T03:11:44.276Z,99635.94
2023-03-29T03:14:10.989Z,99652.25
2023-03-29T03:16:37.818Z,99647.97
2023-03-29T03:19:04.849Z,99606.75
2023-03-29T03:21:31.593Z,99635.94
2023-03-29T03:23:58.220Z,99630.78
2023-03-29T03:26:30.333Z,99637.63
2023-03-29T03:28:57.480Z,99639.38
2023-03-29T03:31:24.477Z,99643.66
2023-03-29T03:33:51.250Z,99634.22
2023-03-29T03:36:18.067Z,99655.69
2023-03-29T03:38:45.255Z,99628.25
2023-03-29T03:41:11.997Z,99647.97
2023-03-29T03:43:41.225Z,99641.09
2023-03-29T03:46:08.637Z,99629.94
2023-03-29T03:48:35.411Z,99647.06
2023-03-29T03:51:03.652Z,99641.06
2023-03-29T03:53:30.561Z,99646.19
2023-03-29T03:55:57.375Z,99665.94
2023-03-29T03:58:24.519Z,99664.22
2023-03-29T04:00:51.566Z,99664.19
2023-03-29T04:03:18.840Z,99651.34
2023-03-29T04:05:46.792Z,99636.75
2023-03-29T04:08:14.409Z,99669.34
2023-03-29T04:10:41.490Z,99670.22
2023-03-29T04:13:08.432Z,99659.91
2023-03-29T04:15:38.788Z,99638.47
2023-03-29T04:18:07.412Z,99605.03
2023-03-29T04:20:34.400Z,99653.00
2023-03-29T04:23:01.126Z,99647.06
2023-03-29T04:25:27.841Z,99672.75
2023-03-29T04:27:54.533Z,99661.63
2023-03-29T04:30:21.341Z,99659.91
2023-03-29T04:32:48.025Z,99627.31
2023-03-29T04:35:14.825Z,99649.59
2023-03-29T04:37:41.950Z,99671.03
2023-03-29T04:40:10.041Z,99683.03
2023-03-29T04:42:37.726Z,99671.91
2023-03-29T04:45:07.321Z,99681.31
2023-03-29T04:47:36.429Z,99674.50
2023-03-29T04:50:03.925Z,99674.47
2023-03-29T04:52:33.334Z,99654.75
2023-03-29T04:55:04.633Z,99671.03
2023-03-29T04:57:31.403Z,99672.75
2023-03-29T04:59:58.132Z,99668.44
2023-03-29T05:02:24.834Z,99659.06
2023-03-29T05:04:51.687Z,99666.75
2023-03-29T05:07:19.286Z,99684.75
2023-03-29T05:09:45.976Z,99676.16
2023-03-29T05:12:12.763Z,99681.28
2023-03-29T05:14:39.406Z,99691.56
2023-03-29T05:17:06.576Z,99701.00
2023-03-29T05:19:36.934Z,99694.16
2023-03-29T05:22:03.585Z,99681.19
2023-03-29T05:24:30.264Z,99648.69
2023-03-29T05:26:56.953Z,99682.97
2023-03-29T05:29:23.742Z,99647.00
2023-03-29T05:31:50.505Z,99692.34
2023-03-29T05:34:17.236Z,99684.66
2023-03-29T05:36:45.535Z,99698.38
2023-03-29T05:39:12.145Z,99680.38
2023-03-29T05:41:38.989Z,99684.66
2023-03-29T05:44:17.468Z,99680.34
2023-03-29T05:46:52.880Z,99671.84
2023-03-29T05:49:19.555Z,99703.53
2023-03-29T05:51:50.246Z,99689.81
2023-03-29T05:54:17.029Z,99689.88
2023-03-29T05:56:43.752Z,99710.47
2023-03-29T05:59:10.525Z,99701.84
2023-03-29T06:01:37.235Z,99674.41
2023-03-29T06:04:04.061Z,99705.25
2023-03-29T06:06:30.872Z,99691.44
2023-03-29T06:08:57.553Z,99712.94
2023-03-29T06:11:24.493Z,99714.72
2023-03-29T06:13:51.947Z,99706.97
2023-03-29T06:16:18.825Z,99729.22
2023-03-29T06:18:45.515Z,99731.09
2023-03-29T06:21:12.783Z,99731.97
2023-03-29T06:23:39.642Z,99730.22
2023-03-29T06:26:06.659Z,99727.63
2023-03-29T06:28:33.408Z,99731.91
2023-03-29T06:31:03.072Z,99717.28
2023-03-29T06:33:38.491Z,99720.75
2023-03-29T06:36:05.734Z,99676.97
2023-03-29T06:38:37.358Z,99711.25
2023-03-29T06:41:29.728Z,99667.50
2023-03-29T06:44:47.156Z,99697.56
2023-03-29T06:47:30.767Z,99687.25
2023-03-29T06:49:57.750Z,99688.06
2023-03-29T06:52:26.945Z,99676.16
2023-03-29T06:54:54.008Z,99742.25
2023-03-29T06:57:20.735Z,99728.47
2023-03-29T06:59:50.777Z,99745.59
2023-03-29T07:02:17.547Z,99743.03
2023-03-29T07:04:44.655Z,99755.06
2023-03-29T07:07:20.152Z,99714.63
2023-03-29T07:09:54.195Z,99744.78
2023-03-29T07:12:24.207Z,99773.09
2023-03-29T07:14:50.882Z,99780.00
2023-03-29T07:17:18.723Z,99767.09
2023-03-29T07:19:45.442Z,99749.91
2023-03-29T07:22:12.082Z,99753.44
2023-03-29T07:24:38.716Z,99786.00
2023-03-29T07:27:05.423Z,99776.56
2023-03-29T07:29:32.384Z,99786.88
2023-03-29T07:31:59.124Z,99786.84
2023-03-29T07:34:25.847Z,99798.06
2023-03-29T07:36:52.634Z,99810.91
2023-03-29T07:39:19.273Z,99804.81
2023-03-29T07:41:46.102Z,99811.75
2023-03-29T07:44:12.803Z,99792.91
2023-03-29T07:46:39.589Z,99807.47
2023-03-29T07:49:08.316Z,99808.34
2023-03-29T07:51:36.710Z,99798.91
2023-03-29T07:54:03.671Z,99799.75
2023-03-29T07:56:30.349Z,99804.91
2023-03-29T07:58:57.304Z,99817.78
2023-03-29T08:01:24.864Z,99794.56
2023-03-29T08:03:52.354Z,99816.06
2023-03-29T08:06:19.153Z,99809.19
2023-03-29T08:08:46.284Z,99808.31
2023-03-29T08:11:12.915Z,99816.06
2023-03-29T08:13:39.561Z,99765.41
2023-03-29T08:16:06.792Z,99839.25
2023-03-29T08:18:34.908Z,99824.56
2023-03-29T08:21:02.162Z,99824.66
2023-03-29T08:23:29.105Z,99805.72
2023-03-29T08:25:55.924Z,99816.94
2023-03-29T08:28:23.364Z,99844.44
2023-03-29T08:30:50.089Z,99833.25
2023-03-29T08:33:17.171Z,99842.63
2023-03-29T08:35:44.062Z,99841.03
2023-03-29T08:38:11.252Z,99841.84
2023-03-29T08:40:37.945Z,99844.41
2023-03-29T08:43:50.159Z,99828.94
2023-03-29T08:46:20.876Z,99839.25
2023-03-29T08:48:52.830Z,99863.28
2023-03-29T08:51:48.406Z,99857.31
2023-03-29T08:54:44.702Z,99861.59
2023-03-29T08:57:17.309Z,99862.44
2023-03-29T08:59:53.123Z,99857.34
2023-03-29T09:02:25.121Z,99873.63
2023-03-29T09:04:53.353Z,99852.19
2023-03-29T09:07:20.049Z,99863.38
2023-03-29T09:09:46.942Z,99852.19
2023-03-29T09:12:16.706Z,99873.63
2023-03-29T09:14:49.012Z,99832.44
2023-03-29T09:17:38.561Z,99865.06
2023-03-29T09:20:08.298Z,99878.00
2023-03-29T09:22:44.006Z,99838.41
2023-03-29T09:25:50.886Z,99877.94
2023-03-29T09:28:33.078Z,99907.97
2023-03-29T09:31:16.776Z,99898.63
2023-03-29T09:33:51.364Z,99906.31
2023-03-29T09:36:56.792Z,99902.91
2023-03-29T09:39:23.780Z,99886.53
2023-03-29T09:41:51.919Z,99932.06
2023-03-29T09:44:33.222Z,99906.31
2023-03-29T09:47:24.996Z,99902.84
2023-03-29T09:49:57.225Z,99889.03
2023-03-29T09:52:25.834Z,99912.22
2023-03-29T09:54:52.776Z,99921.75
2023-03-29T09:57:20.307Z,99923.50
2023-03-29T09:59:49.851Z,99913.19
2023-03-29T10:02:19.597Z,99929.44
2023-03-29T10:04:53.628Z,99895.06
2023-03-29T10:07:23.606Z,99932.84
2023-03-29T10:09:52.081Z,99940.59
2023-03-29T10:12:20.064Z,99937.19
2023-03-29T10:14:51.480Z,99932.06
2023-03-29T10:17:24.022Z,99945.72
2023-03-29T10:19:58.991Z,99925.09
2023-03-29T10:22:27.834Z,99952.63
2023-03-29T10:24:57.351Z,99947.47
2023-03-29T10:27:28.535Z,99942.34
2023-03-29T10:29:59.495Z,99924.31
2023-03-29T10:32:34.932Z,99939.78
2023-03-29T10:35:29.109Z,99938.91
2023-03-29T10:40:50.208Z,99951.00
2023-03-29T10:43:19.714Z,99944.13
2023-03-29T10:45:52.271Z,99938.03
2023-03-29T10:48:19.565Z,99939.84
2023-03-29T10:50:51.542Z,99933.81
2023-03-29T10:53:24.348Z,99938.13
2023-03-29T10:56:17.717Z,99934.72
2023-03-29T10:59:03.467Z,99930.41
2023-03-29T11:01:30.018Z,99936.41
2023-03-29T11:04:41.382Z,99936.44
2023-03-29T11:07:36.747Z,99939.06
2023-03-29T11:10:22.234Z,99942.50
2023-03-29T11:13:04.362Z,99928.78
2023-03-29T11:16:05.909Z,99960.53
2023-03-29T11:18:54.447Z,99960.56
2023-03-29T11:21:51.782Z,99930.50
2023-03-29T11:24:38.533Z,99936.47
2023-03-29T11:27:32.551Z,99941.66
2023-03-29T11:30:24.098Z,99928.78
2023-03-29T11:33:03.906Z,99932.19
2023-03-29T11:35:44.476Z,99971.72
2023-03-29T11:38:16.204Z,99927.06
2023-03-29T11:41:17.819Z,99938.22
2023-03-29T11:44:12.022Z,99939.09
2023-03-29T11:46:59.895Z,99933.97
2023-03-29T11:49:33.788Z,99936.53
2023-03-29T11:52:18.073Z,99913.25
2023-03-29T11:54:51.679Z,99917.63
2023-03-29T11:57:20.592Z,99939.13
2023-03-29T12:00:16.434Z,99936.53
2023-03-29T12:02:59.726Z,99950.28
2023-03-29T12:05:44.441Z,99947.72
2023-03-29T12:08:14.860Z,99945.97
2023-03-29T12:10:46.034Z,99930.50
2023-03-29T12:13:29.501Z,99932.19
2023-03-29T12:16:05.931Z,99930.50
2023-03-29T12:18:35.800Z,99932.25
2023-03-29T12:21:04.281Z,99946.84
2023-03-29T12:23:32.346Z,99939.09
2023-03-29T12:26:17.696Z,99956.34
2023-03-29T12:29:15.466Z,99954.59
2023-03-29T12:31:51.040Z,99961.47
2023-03-29T12:34:17.678Z,99953.75
2023-03-29T12:37:18.115Z,99951.13
2023-03-29T12:39:49.230Z,99959.75
2023-03-29T12:42:18.590Z,99951.13
2023-03-29T12:45:07.592Z,99937.41
2023-03-29T12:47:44.308Z,99933.97
2023-03-29T12:50:33.298Z,99939.97
2023-03-29T12:53:20.134Z,99956.34
2023-03-29T12:55:48.649Z,99930.53
2023-03-29T12:58:30.742Z,99945.16
2023-03-29T13:01:23.998Z,99944.31
2023-03-29T13:03:52.880Z,99959.78
2023-03-29T13:06:35.354Z,99947.72
2023-03-29T13:09:05.372Z,99943.44
2023-03-29T13:11:40.863Z,99939.13
2023-03-29T13:14:14.819Z,99952.03
2023-03-29T13:16:41.889Z,99960.59
2023-03-29T13:19:29.775Z,99968.34
2023-03-29T13:22:06.171Z,99973.50
2023-03-29T13:25:18.074Z,99968.31
2023-03-29T13:28:15.626Z,99976.06
2023-03-29T13:30:54.207Z,100000.09
2023-03-29T13:33:52.643Z,100002.72
2023-03-29T13:36:38.028Z,100007.03
2023-03-29T13:39:09.507Z,100002.72
2023-03-29T13:41:39.220Z,100023.34
2023-03-29T13:44:30.890Z,100013.91
2023-03-29T13:47:32.781Z,100032.81
2023-03-29T13:50:03.998Z,100034.50
2023-03-29T13:52:34.760Z,100027.63
2023-03-29T13:55:22.778Z,100021.56
2023-03-29T13:58:02.754Z,100041.34
2023-03-29T14:00:54.194Z,100044.75
2023-03-29T14:03:26.411Z,100055.09
2023-03-29T14:05:58.395Z,100056.81
2023-03-29T14:08:35.820Z,100062.03
2023-03-29T14:11:03.943Z,100049.94
2023-03-29T14:13:31.308Z,100070.66
2023-03-29T14:16:07.833Z,100053.41
2023-03-29T14:18:40.285Z,100011.16
2023-03-29T14:21:07.398Z,100075.75
2023-03-29T14:23:37.613Z,100061.16
2023-03-29T14:26:25.748Z,100075.72
2023-03-29T14:28:56.784Z,100083.47
2023-03-29T14:31:26.213Z,100095.53
2023-03-29T14:33:54.097Z,100074.84
2023-03-29T14:36:21.983Z,100084.31
2023-03-29T14:39:10.782Z,100098.91
2023-03-29T14:41:38.654Z,100105.81
2023-03-29T14:44:09.171Z,100082.53
2023-03-29T14:46:36.664Z,100099.69
2023-03-29T14:49:04.105Z,100104.00
2023-03-29T14:51:31.284Z,100121.25
2023-03-29T14:54:03.812Z,100116.13
2023-03-29T14:56:32.683Z,100115.28
2023-03-29T14:59:03.649Z,100133.31
2023-03-29T15:01:30.380Z,100117.81
2023-03-29T15:04:03.321Z,100145.31
2023-03-29T15:06:30.954Z,100146.22
2023-03-29T15:09:05.941Z,100145.25
2023-03-29T15:11:34.149Z,100128.03
2023-03-29T15:14:02.679Z,100140.16
2023-03-29T15:16:30.751Z,100153.91
2023-03-29T15:18:57.983Z,100144.41
2023-03-29T15:21:29.736Z,100158.19
2023-03-29T15:23:58.382Z,100146.91
2023-03-29T15:26:26.946Z,100158.19
2023-03-29T15:29:03.124Z,100167.63
2023-03-29T15:31:35.792Z,100177.09
2023-03-29T15:34:06.350Z,100172.75
2023-03-29T15:36:35.230Z,100158.94
2023-03-29T15:39:02.092Z,100175.28
2023-03-29T15:41:28.798Z,100185.63
2023-03-29T15:43:58.962Z,100192.47
2023-03-29T15:46:25.580Z,100197.63
2023-03-29T15:48:52.201Z,100206.13
2023-03-29T15:51:18.890Z,100206.22
2023-03-29T15:53:45.743Z,100212.25
2023-03-29T15:56:16.398Z,100182.09
2023-03-29T15:58:43.528Z,100216.50
2023-03-29T16:01:23.656Z,100231.19
2023-03-29T16:03:51.082Z,100229.38
2023-03-29T16:06:17.961Z,100218.16
2023-03-29T16:08:44.636Z,100230.31
2023-03-29T16:11:11.754Z,100229.41
2023-03-29T16:13:38.529Z,100225.13
2023-03-29T16:16:05.970Z,100238.81
2023-03-29T16:18:32.850Z,100219.03
2023-03-29T16:20:59.615Z,100226.69
2023-03-29T16:23:26.594Z,100227.59
2023-03-29T16:25:53.263Z,100225.91
2023-03-29T16:28:19.928Z,100235.31
2023-03-29T16:30:46.720Z,100218.94
2023-03-29T16:33:14.277Z,100222.38
2023-03-29T16:35:41.318Z,100229.34
2023-03-29T16:38:09.388Z,100219.75
2023-03-29T16:40:36.690Z,100212.03
2023-03-29T16:43:04.013Z,100237.81
2023-03-29T16:45:30.905Z,100224.88
2023-03-29T16:47:57.728Z,100258.38
2023-03-29T16:50:24.477Z,100228.25
2023-03-29T16:52:54.188Z,100261.84
2023-03-29T16:55:20.898Z,100263.53
2023-03-29T16:57:48.960Z,100277.28
2023-03-29T17:00:19.627Z,100264.41
2023-03-29T17:02:49.768Z,100268.69
2023-03-29T17:05:17.377Z,100296.25
2023-03-29T17:07:44.197Z,100284.19
2023-03-29T17:10:12.493Z,100297.03
2023-03-29T17:12:39.841Z,100294.47
2023-03-29T17:15:09.313Z,100298.72
2023-03-29T17:17:37.509Z,100304.75
2023-03-29T17:20:06.928Z,100298.75
2023-03-29T17:22:33.594Z,100309.06
2023-03-29T17:25:00.378Z,100309.91
2023-03-29T17:27:27.072Z,100308.19
2023-03-29T17:29:53.755Z,100309.91
2023-03-29T17:32:20.572Z,100312.47
2023-03-29T17:34:48.414Z,100288.25
2023-03-29T17:37:15.110Z,100322.78
2023-03-29T17:39:42.209Z,100326.22
2023-03-29T17:42:08.865Z,100312.47
2023-03-29T17:44:35.775Z,100306.34
2023-03-29T17:47:02.506Z,100318.47
2023-03-29T17:49:29.311Z,100327.88
2023-03-29T17:51:56.162Z,100321.78
2023-03-29T17:54:22.781Z,100327.94
2023-03-29T17:56:50.601Z,100341.59
2023-03-29T17:59:17.820Z,100339.00
2023-03-29T18:01:44.566Z,100314.94
2023-03-29T18:04:11.505Z,100329.50
2023-03-29T18:06:38.230Z,100351.00
2023-03-29T18:09:05.738Z,100348.50
2023-03-29T18:11:32.435Z,100350.94
2023-03-29T18:14:00.350Z,100360.38
2023-03-29T18:16:27.154Z,100357.88
2023-03-29T18:18:53.934Z,100345.69
2023-03-29T18:21:21.093Z,100337.16
2023-03-29T18:23:48.968Z,100337.97
2023-03-29T18:26:16.615Z,100339.81
2023-03-29T18:28:47.955Z,100331.03
2023-03-29T18:31:15.411Z,100372.50
2023-03-29T18:33:42.228Z,100375.09
2023-03-29T18:36:12.605Z,100379.34
2023-03-29T18:38:40.754Z,100380.19
2023-03-29T18:41:08.711Z,100391.31
2023-03-29T18:43:36.061Z,100379.28
2023-03-29T18:46:03.129Z,100371.63
2023-03-29T18:48:30.057Z,100388.78
2023-03-29T18:50:57.933Z,100386.19
2023-03-29T18:53:24.754Z,100390.50
2023-03-29T18:55:52.713Z,100386.19
2023-03-29T18:58:22.974Z,100379.22
2023-03-29T19:00:49.852Z,100385.34
2023-03-29T19:03:16.815Z,100395.59
2023-03-29T19:05:43.661Z,100391.28
2023-03-29T19:08:10.528Z,100396.44
2023-03-29T19:10:40.154Z,100394.75
2023-03-29T19:13:11.694Z,100383.53
2023-03-29T19:15:42.089Z,100324.72
2023-03-29T19:18:08.906Z,100351.47
2023-03-29T19:20:36.378Z,100397.22
2023-03-29T19:23:04.504Z,100355.81
2023-03-29T19:25:31.984Z,100357.56
2023-03-29T19:27:59.542Z,100410.09
2023-03-29T19:30:26.356Z,100392.06
2023-03-29T19:32:53.071Z,100351.47
2023-03-29T19:35:19.778Z,100401.44
2023-03-29T19:37:46.455Z,100379.97
2023-03-29T19:40:13.694Z,100379.94
2023-03-29T19:42:42.331Z,100383.34
2023-03-29T19:45:09.672Z,100400.56
2023-03-29T19:47:36.577Z,100379.00
2023-03-29T19:50:04.831Z,100392.84
2023-03-29T19:52:34.092Z,100403.19
2023-03-29T19:55:00.989Z,100357.34
2023-03-29T19:57:28.409Z,100391.06
2023-03-29T19:59:55.604Z,100404.75
2023-03-29T20:02:22.256Z,100372.19
2023-03-29T20:04:49.722Z,100395.34
2023-03-29T20:07:16.450Z,100402.19
2023-03-29T20:09:45.177Z,100402.22
2023-03-29T20:12:12.125Z,100335.72
2023-03-29T20:14:40.333Z,100398.66
2023-03-29T20:17:07.391Z,100404.69
2023-03-29T20:19:36.658Z,100412.44
2023-03-29T20:22:04.458Z,100405.38
2023-03-29T20:24:32.636Z,100363.06
2023-03-29T20:26:59.468Z,100411.50
2023-03-29T20:29:26.220Z,100401.94
2023-03-29T20:31:53.045Z,100415.00
2023-03-29T20:34:19.816Z,100406.31
2023-03-29T20:36:47.005Z,100395.88
2023-03-29T20:39:17.724Z,100407.97
2023-03-29T20:41:47.559Z,100411.47
2023-03-29T20:44:16.960Z,100419.16
2023-03-29T20:46:54.633Z,100420.81
2023-03-29T20:49:26.654Z,100372.50
2023-03-29T20:51:58.787Z,100428.53
2023-03-29T20:54:26.269Z,100399.88
2023-03-29T20:56:54.966Z,100429.28
2023-03-29T20:59:22.928Z,100428.38
2023-03-29T21:01:50.418Z,100443.06
2023-03-29T21:04:17.788Z,100440.41
2023-03-29T21:06:45.749Z,100429.94
2023-03-29T21:09:13.779Z,100436.81
2023-03-29T21:11:40.995Z,100435.19
2023-03-29T21:14:09.440Z,100431.75
2023-03-29T21:16:36.303Z,100441.22
2023-03-29T21:19:02.949Z,100434.38
2023-03-29T21:21:29.842Z,100443.66
2023-03-29T21:23:56.547Z,100445.38
2023-03-29T21:26:23.628Z,100441.94
2023-03-29T21:28:50.444Z,100429.88
2023-03-29T21:31:17.246Z,100434.22
2023-03-29T21:33:44.023Z,100427.19
2023-03-29T21:36:10.905Z,100436.69
2023-03-29T21:38:37.845Z,100438.34
2023-03-29T21:41:05.001Z,100430.56
2023-03-29T21:43:31.797Z,100428.78
2023-03-29T21:45:58.486Z,100448.66
2023-03-29T21:48:25.193Z,100452.97
2023-03-29T21:50:51.934Z,100427.06
2023-03-29T21:53:18.653Z,100444.97
2023-03-29T21:55:48.875Z,100453.59
2023-03-29T21:58:16.112Z,100450.09
2023-03-29T22:00:42.843Z,100449.22
2023-03-29T22:03:09.640Z,100467.34
2023-03-29T22:05:36.808Z,100458.75
2023-03-29T22:08:04.889Z,100472.50
2023-03-29T22:10:33.097Z,100465.63
2023-03-29T22:13:03.566Z,100450.91
2023-03-29T22:15:35.561Z,100469.91
2023-03-29T22:18:03.778Z,100465.44
2023-03-29T22:20:30.948Z,100466.41
2023-03-29T22:22:57.654Z,100467.16
2023-03-29T22:25:24.520Z,100469.78
2023-03-29T22:27:51.168Z,100470.44
2023-03-29T22:30:18.024Z,100470.56
2023-03-29T22:32:45.072Z,100470.56
2023-03-29T22:35:11.746Z,100460.97
2023-03-29T22:37:42.615Z,100478.28
2023-03-29T22:40:10.854Z,100456.56
2023-03-29T22:42:37.724Z,100462.59
2023-03-29T22:45:06.574Z,100450.50
2023-03-29T22:47:33.437Z,100453.03
2023-03-29T22:50:00.210Z,100466.94
2023-03-29T22:52:27.005Z,100456.53
2023-03-29T22:54:53.618Z,100466.84
2023-03-29T22:57:20.341Z,100468.59
2023-03-29T22:59:47.110Z,100472.84
2023-03-29T23:02:13.760Z,100463.22
2023-03-29T23:04:42.375Z,100472.63
2023-03-29T23:07:09.268Z,100474.44
2023-03-29T23:09:35.900Z,100457.94
2023-03-29T23:12:02.629Z,100474.25
2023-03-29T23:14:29.922Z,100456.06
2023-03-29T23:16:56.506Z,100462.13
2023-03-29T23:19:23.220Z,100468.19
2023-03-29T23:21:49.935Z,100473.25
2023-03-29T23:24:19.221Z,100480.88
2023-03-29T23:26:46.009Z,100464.53
2023-03-29T23:29:13.270Z,100486.06
2023-03-29T23:31:40.067Z,100475.69
2023-03-29T23:34:06.909Z,100469.56
2023-03-29T23:36:33.535Z,100471.28
2023-03-29T23:39:00.247Z,100453.03
2023-03-29T23:41:30.772Z,100470.34
2023-03-29T23:43:57.906Z,100463.63
2023-03-29T23:46:24.889Z,100479.88
2023-03-29T23:48:51.553Z,100485.16
2023-03-29T23:51:22.868Z,100471.34
2023-03-29T23:53:50.062Z,100471.31
2023-03-29T23:56:16.947Z,100478.19
2023-03-29T23:58:44.586Z,100471.31
